Time;durP1;ratioP1;P1;durP2;ratioP2;P2;SDS_P1;SDS_P2;PMS_P1;PMS_P2;Temp;Humidity;BMP_temperature;BMP_pressure;BME280_temperature;BME280_humidity;BME280_pressure;Samples;Min_cycle;Max_cycle;Signal;HPM_P1;HPM_P2
2022/10/23 00:01:31;;;;;;;46.20;18.60;;;9.30;99.90;;;;;;5093763;28;20501;-27
2022/10/23 00:04:16;;;;;;;59.70;21.75;;;9.40;99.90;;;;;;5093375;28;20397;-27
2022/10/23 00:06:43;;;;;;;42.83;18.67;;;9.30;99.90;;;;;;5094060;28;20040;-27
2022/10/23 00:09:11;;;;;;;64.10;22.42;;;9.40;99.90;;;;;;5093698;28;20113;-27
2022/10/23 00:11:37;;;;;;;53.13;20.75;;;9.40;99.90;;;;;;5093917;28;20074;-27
2022/10/23 00:14:06;;;;;;;57.28;20.73;;;9.40;99.90;;;;;;5093655;28;20048;-27
2022/10/23 00:16:33;;;;;;;67.13;24.70;;;9.40;99.90;;;;;;5092686;28;20040;-27
2022/10/23 00:18:58;;;;;;;63.78;21.35;;;9.50;99.90;;;;;;5093587;28;20482;-27
2022/10/23 00:21:24;;;;;;;65.38;26.25;;;9.50;99.90;;;;;;5092884;28;20059;-27
2022/10/23 00:23:50;;;;;;;52.55;23.05;;;9.40;99.90;;;;;;5093567;28;20051;-28
2022/10/23 00:26:16;;;;;;;66.15;26.95;;;9.40;99.90;;;;;;5092564;28;20047;-27
2022/10/23 00:28:43;;;;;;;73.35;25.00;;;9.50;99.90;;;;;;5093482;28;20042;-27
2022/10/23 00:31:09;;;;;;;60.65;24.30;;;9.50;99.90;;;;;;5093334;28;20056;-27
2022/10/23 00:33:35;;;;;;;62.45;23.63;;;9.40;99.90;;;;;;5093402;28;20051;-27
2022/10/23 00:36:07;;;;;;;67.95;25.27;;;9.50;99.90;;;;;;5092930;28;20505;-27
2022/10/23 00:38:33;;;;;;;74.13;23.75;;;9.40;99.90;;;;;;5093797;28;20541;-27
2022/10/23 00:40:59;;;;;;;75.35;25.25;;;9.50;99.90;;;;;;5093998;28;20149;-27
2022/10/23 00:43:27;;;;;;;54.00;23.98;;;9.40;99.90;;;;;;5093701;28;20062;-27
2022/10/23 00:45:54;;;;;;;65.60;26.60;;;9.50;99.90;;;;;;5093411;28;20474;-27
2022/10/23 00:48:20;;;;;;;72.00;25.80;;;9.40;99.90;;;;;;5093949;28;20040;-27
2022/10/23 00:50:48;;;;;;;65.28;25.90;;;9.40;99.90;;;;;;5093953;28;20051;-27
2022/10/23 00:53:15;;;;;;;57.45;24.30;;;9.40;99.90;;;;;;5093843;28;20052;-27
2022/10/23 00:55:45;;;;;;;71.38;26.98;;;9.30;99.90;;;;;;5093247;28;20091;-27
2022/10/23 00:58:13;;;;;;;74.03;26.45;;;9.30;99.90;;;;;;5094153;28;20048;-27
2022/10/23 01:00:47;;;;;;;87.05;26.40;;;9.30;99.90;;;;;;5094049;28;20116;-27
2022/10/23 01:03:15;;;;;;;58.83;25.88;;;9.40;99.90;;;;;;5096595;28;20097;-27
2022/10/23 01:06:10;;;;;;;77.13;28.88;;;9.50;99.90;;;;;;5096996;28;20097;-27
2022/10/23 01:08:39;;;;;;;62.45;26.20;;;9.40;99.90;;;;;;5097585;28;20052;-27
2022/10/23 01:11:16;;;;;;;67.47;28.90;;;9.30;99.90;;;;;;5078703;28;20572;-27
2022/10/23 01:14:05;;;;;;;87.45;29.77;;;9.40;99.90;;;;;;5096903;28;20048;-27
2022/10/23 01:16:58;;;;;;;67.72;28.73;;;9.40;99.90;;;;;;5079613;28;20093;-27
2022/10/23 01:19:42;;;;;;;86.60;30.90;;;9.30;99.90;;;;;;5078928;28;20509;-27
2022/10/23 01:22:47;;;;;;;71.10;28.02;;;9.30;99.90;;;;;;5096447;28;20544;-27
2022/10/23 01:25:21;;;;;;;80.25;30.77;;;9.20;99.90;;;;;;5097583;28;20067;-27
2022/10/23 01:27:54;;;;;;;79.07;31.27;;;9.30;99.90;;;;;;5095478;28;20090;-27
2022/10/23 01:30:20;;;;;;;70.38;30.75;;;9.20;99.90;;;;;;5097235;28;20048;-27
2022/10/23 01:32:58;;;;;;;96.50;32.03;;;9.30;99.90;;;;;;5097285;28;20469;-27
2022/10/23 01:35:39;;;;;;;110.68;33.50;;;9.20;99.90;;;;;;5096454;28;20090;-26
2022/10/23 01:38:11;;;;;;;82.53;32.13;;;9.10;99.90;;;;;;5095311;28;20116;-27
2022/10/23 01:40:49;;;;;;;75.57;31.13;;;9.20;99.90;;;;;;5096155;28;20438;-26
2022/10/23 01:43:26;;;;;;;130.35;38.05;;;9.20;99.90;;;;;;5095076;28;20055;-26
2022/10/23 01:46:03;;;;;;;86.22;33.95;;;9.00;99.90;;;;;;5096359;28;20036;-26
2022/10/23 01:48:32;;;;;;;90.68;35.10;;;9.00;99.90;;;;;;5096777;28;20048;-27
2022/10/23 01:51:00;;;;;;;88.18;33.75;;;9.20;99.90;;;;;;5078002;28;20079;-26
2022/10/23 01:53:30;;;;;;;96.07;36.80;;;9.30;99.90;;;;;;5096339;28;20062;-28
2022/10/23 01:56:01;;;;;;;101.72;33.10;;;9.20;99.90;;;;;;5095972;28;20555;-27
2022/10/23 01:58:30;;;;;;;124.10;36.95;;;9.10;99.90;;;;;;5096581;28;20047;-26
2022/10/23 02:01:00;;;;;;;114.13;38.45;;;9.20;99.90;;;;;;5095901;28;20504;-26
2022/10/23 02:03:30;;;;;;;112.40;35.95;;;9.10;99.90;;;;;;5095783;28;20130;-27
2022/10/23 02:05:56;;;;;;;133.55;39.78;;;9.10;99.90;;;;;;5095185;28;20051;-27
2022/10/23 02:08:24;;;;;;;105.80;37.00;;;9.10;99.90;;;;;;5095902;28;20052;-27
2022/10/23 02:10:55;;;;;;;123.38;39.05;;;8.90;99.90;;;;;;5095814;28;20052;-26
2022/10/23 02:13:33;;;;;;;88.38;33.33;;;9.10;99.90;;;;;;5095658;28;20071;-27
2022/10/23 02:16:36;;;;;;;109.20;35.15;;;9.10;99.90;;;;;;5096271;28;20052;-27
2022/10/23 02:19:20;;;;;;;101.78;36.22;;;8.90;99.90;;;;;;5095704;28;20048;-26
2022/10/23 02:21:51;;;;;;;104.50;36.63;;;9.00;99.90;;;;;;5094940;28;20080;-26
2022/10/23 02:24:21;;;;;;;110.95;37.00;;;9.10;99.90;;;;;;5095535;28;20044;-26
2022/10/23 02:26:58;;;;;;;106.72;36.13;;;9.00;99.90;;;;;;5094386;28;20123;-26
2022/10/23 02:29:29;;;;;;;115.15;38.75;;;8.90;99.90;;;;;;5095692;28;20052;-26
2022/10/23 02:31:54;;;;;;;101.22;36.92;;;9.20;99.90;;;;;;5078505;28;20056;-28
2022/10/23 02:34:21;;;;;;;147.32;43.72;;;9.10;99.90;;;;;;5095285;28;20051;-27
2022/10/23 02:36:46;;;;;;;193.65;44.58;;;9.10;99.90;;;;;;5094863;28;20052;-27
2022/10/23 02:39:12;;;;;;;118.20;38.58;;;9.00;99.90;;;;;;5095174;28;20444;-27
2022/10/23 02:42:07;;;;;;;102.50;36.08;;;9.00;99.90;;;;;;5095154;28;20105;-26
2022/10/23 02:44:42;;;;;;;105.97;37.78;;;9.20;99.90;;;;;;5081779;28;20432;-26
2022/10/23 02:47:18;;;;;;;103.00;36.42;;;9.00;99.90;;;;;;5094779;28;20574;-26
2022/10/23 02:50:10;;;;;;;127.32;39.67;;;8.90;99.90;;;;;;5094968;28;20052;-27
2022/10/23 02:52:49;;;;;;;102.45;37.22;;;8.90;99.90;;;;;;5095821;28;20044;-26
2022/10/23 02:55:48;;;;;;;114.25;40.67;;;9.10;99.90;;;;;;5094855;28;20063;-27
2022/10/23 02:58:55;;;;;;;102.15;38.20;;;8.90;99.90;;;;;;5094211;28;20134;-27
2022/10/23 03:01:53;;;;;;;105.63;36.30;;;9.00;99.90;;;;;;5079561;28;20066;-26
2022/10/23 03:04:23;;;;;;;136.20;45.10;;;8.90;99.90;;;;;;5085820;28;20056;-26
2022/10/23 03:06:49;;;;;;;133.45;41.90;;;9.10;99.90;;;;;;5094614;28;20085;-26
2022/10/23 03:09:15;;;;;;;118.07;40.78;;;8.80;99.90;;;;;;5094600;28;20051;-26
2022/10/23 03:11:41;;;;;;;114.90;40.13;;;9.00;99.90;;;;;;5095128;28;20048;-26
2022/10/23 03:14:07;;;;;;;125.40;44.55;;;9.20;99.90;;;;;;5095150;28;20215;-26
2022/10/23 03:16:32;;;;;;;130.93;44.22;;;9.20;99.90;;;;;;5093561;28;20490;-25
2022/10/23 03:18:58;;;;;;;135.57;43.20;;;9.20;99.90;;;;;;5094498;28;20515;-26
2022/10/23 03:21:23;;;;;;;130.68;45.28;;;9.20;99.90;;;;;;5093268;28;20367;-25
2022/10/23 03:23:49;;;;;;;123.47;44.60;;;9.30;99.90;;;;;;5094242;28;20051;-25
2022/10/23 03:26:15;;;;;;;125.30;45.08;;;9.20;99.90;;;;;;5076471;28;20105;-26
2022/10/23 03:28:40;;;;;;;145.35;49.53;;;9.30;99.90;;;;;;5092732;28;20036;-27
2022/10/23 03:31:06;;;;;;;143.68;46.22;;;9.30;99.90;;;;;;5093891;28;20135;-26
2022/10/23 03:33:32;;;;;;;145.60;47.45;;;9.50;99.90;;;;;;5093743;28;20052;-26
2022/10/23 03:35:57;;;;;;;144.63;46.10;;;9.50;99.90;;;;;;5092633;28;20044;-25
2022/10/23 03:38:23;;;;;;;119.93;44.75;;;9.70;99.90;;;;;;5092906;28;20056;-25
2022/10/23 03:40:49;;;;;;;135.43;45.00;;;9.80;99.90;;;;;;5094073;28;20044;-26
2022/10/23 03:43:14;;;;;;;126.00;46.75;;;9.80;99.90;;;;;;5093957;28;20109;-26
2022/10/23 03:45:40;;;;;;;125.97;44.80;;;9.90;99.90;;;;;;5094527;28;20089;-26
2022/10/23 03:48:06;;;;;;;121.05;45.78;;;9.80;99.90;;;;;;5094247;28;20134;-26
2022/10/23 03:50:32;;;;;;;149.63;51.50;;;10.10;99.90;;;;;;5076166;28;20052;-26
2022/10/23 03:52:58;;;;;;;111.13;42.83;;;10.00;99.90;;;;;;5092707;28;20523;-26
2022/10/23 03:55:25;;;;;;;126.47;45.00;;;9.70;99.90;;;;;;5093868;28;20079;-26
2022/10/23 03:57:52;;;;;;;121.38;43.85;;;9.90;99.90;;;;;;5093550;28;20486;-26
2022/10/23 04:00:18;;;;;;;115.53;41.92;;;9.90;99.90;;;;;;5092608;28;20047;-26
2022/10/23 04:02:44;;;;;;;119.70;42.97;;;9.90;99.90;;;;;;5093656;28;20048;-26
2022/10/23 04:05:10;;;;;;;132.23;44.95;;;9.90;99.90;;;;;;5092504;28;20040;-26
2022/10/23 04:07:36;;;;;;;112.40;41.10;;;9.70;99.90;;;;;;5092856;28;20040;-26
2022/10/23 04:10:02;;;;;;;112.68;41.35;;;9.80;99.90;;;;;;5092722;28;20051;-26
2022/10/23 04:12:28;;;;;;;109.97;40.08;;;9.70;99.90;;;;;;5092690;28;20509;-26
2022/10/23 04:14:54;;;;;;;117.07;39.72;;;9.60;99.90;;;;;;5093745;28;20051;-26
2022/10/23 04:17:19;;;;;;;111.38;42.05;;;9.70;99.90;;;;;;5092395;28;20051;-26
2022/10/23 04:19:45;;;;;;;98.25;39.22;;;9.60;99.90;;;;;;5092635;28;20134;-26
2022/10/23 04:22:11;;;;;;;100.47;40.10;;;9.60;99.90;;;;;;5092475;28;20084;-26
2022/10/23 04:24:36;;;;;;;97.00;39.17;;;9.70;99.90;;;;;;5093572;28;20048;-26
2022/10/23 04:27:02;;;;;;;118.10;41.90;;;9.70;99.90;;;;;;5093542;28;20040;-27
2022/10/23 04:29:31;;;;;;;93.75;38.47;;;9.90;99.90;;;;;;5093546;28;20398;-27
2022/10/23 04:31:57;;;;;;;130.55;43.90;;;9.60;99.90;;;;;;5094045;28;20060;-26
2022/10/23 04:34:22;;;;;;;148.38;47.45;;;9.70;99.90;;;;;;5075969;28;20110;-26
2022/10/23 04:36:48;;;;;;;138.38;44.95;;;9.60;99.90;;;;;;5093877;28;20056;-27
2022/10/23 04:39:14;;;;;;;129.75;43.28;;;9.60;99.90;;;;;;5096518;28;20044;-26
2022/10/23 04:41:40;;;;;;;150.27;46.17;;;9.50;99.90;;;;;;5079601;28;20050;-26
2022/10/23 04:44:06;;;;;;;110.70;39.65;;;9.80;99.90;;;;;;5097389;28;20144;-26
2022/10/23 04:46:32;;;;;;;123.93;43.35;;;9.50;99.90;;;;;;5097347;28;20036;-26
2022/10/23 04:48:57;;;;;;;153.40;44.55;;;9.70;99.90;;;;;;5097290;28;20470;-26
2022/10/23 04:51:23;;;;;;;101.55;39.38;;;9.50;99.90;;;;;;5097316;28;20050;-26
2022/10/23 04:53:49;;;;;;;116.95;42.58;;;9.50;99.90;;;;;;5096127;28;20470;-27
2022/10/23 04:56:15;;;;;;;125.18;42.60;;;9.60;99.90;;;;;;5079049;28;20043;-27
2022/10/23 04:58:41;;;;;;;128.20;43.75;;;9.80;99.90;;;;;;5097193;28;20048;-26
2022/10/23 05:01:09;;;;;;;107.70;41.47;;;9.50;99.90;;;;;;5080130;28;20051;-27
2022/10/23 05:03:36;;;;;;;112.70;41.17;;;9.80;99.90;;;;;;5097001;28;20469;-26
2022/10/23 05:06:03;;;;;;;101.25;41.20;;;9.50;99.90;;;;;;5097035;28;20040;-26
2022/10/23 05:08:29;;;;;;;109.22;39.95;;;9.40;99.90;;;;;;5096863;28;20055;-27
2022/10/23 05:10:54;;;;;;;118.32;40.88;;;9.70;99.90;;;;;;5097515;28;20052;-26
2022/10/23 05:13:20;;;;;;;84.32;36.33;;;9.60;99.90;;;;;;5096906;28;20044;-26
2022/10/23 05:15:48;;;;;;;103.00;39.88;;;9.70;99.90;;;;;;5078637;28;20466;-27
2022/10/23 05:18:24;;;;;;;94.15;38.00;;;9.60;99.90;;;;;;5096827;28;20052;-27
2022/10/23 05:20:54;;;;;;;115.57;41.15;;;9.30;99.90;;;;;;5097337;28;20145;-27
2022/10/23 05:23:22;;;;;;;91.40;39.05;;;9.30;99.90;;;;;;5096754;28;20050;-27
2022/10/23 05:25:48;;;;;;;106.07;39.25;;;9.40;99.90;;;;;;5096698;28;20511;-26
2022/10/23 05:28:13;;;;;;;96.68;39.65;;;9.60;99.90;;;;;;5095388;28;20048;-27
2022/10/23 05:30:40;;;;;;;102.05;38.70;;;9.60;99.90;;;;;;5095604;28;20047;-26
2022/10/23 05:33:06;;;;;;;109.10;41.75;;;9.60;99.90;;;;;;5095535;28;20054;-26
2022/10/23 05:35:32;;;;;;;114.40;43.70;;;9.30;99.90;;;;;;5095516;28;20468;-27
2022/10/23 05:38:00;;;;;;;110.20;43.72;;;9.30;99.90;;;;;;5095936;28;20105;-27
2022/10/23 05:40:26;;;;;;;111.05;42.50;;;9.40;99.90;;;;;;5097188;28;20050;-27
2022/10/23 05:42:52;;;;;;;99.75;42.83;;;9.60;99.90;;;;;;5095417;28;20048;-26
2022/10/23 05:45:17;;;;;;;109.32;42.88;;;9.50;99.90;;;;;;5078485;28;20493;-27
2022/10/23 05:47:45;;;;;;;110.93;42.63;;;9.50;99.90;;;;;;5093675;28;20047;-27
2022/10/23 05:50:10;;;;;;;103.95;42.90;;;9.20;99.90;;;;;;5079089;28;20056;-27
2022/10/23 05:52:36;;;;;;;103.20;42.50;;;9.30;99.90;;;;;;5096665;28;20131;-28
2022/10/23 05:55:02;;;;;;;105.65;44.25;;;9.20;99.90;;;;;;5096174;28;20117;-28
2022/10/23 05:57:30;;;;;;;101.22;42.35;;;9.20;99.90;;;;;;5094772;28;20478;-27
2022/10/23 05:59:56;;;;;;;109.57;43.75;;;9.50;99.90;;;;;;5095015;28;20394;-27
2022/10/23 06:02:22;;;;;;;110.65;44.70;;;9.20;99.90;;;;;;5095805;28;20047;-27
2022/10/23 06:04:47;;;;;;;107.72;44.78;;;9.10;99.90;;;;;;5096718;28;20036;-27
2022/10/23 06:07:13;;;;;;;121.55;47.05;;;9.20;99.90;;;;;;5095929;28;20490;-27
2022/10/23 06:09:39;;;;;;;104.18;41.95;;;9.40;99.90;;;;;;5077900;28;20389;-27
2022/10/23 06:12:04;;;;;;;101.10;42.00;;;9.10;99.90;;;;;;5094616;28;20139;-27
2022/10/23 06:14:30;;;;;;;107.05;46.00;;;9.30;99.90;;;;;;5094818;28;20565;-27
2022/10/23 06:16:56;;;;;;;119.55;45.08;;;9.30;99.90;;;;;;5095629;28;20497;-27
2022/10/23 06:19:21;;;;;;;121.95;46.80;;;9.40;99.90;;;;;;5096226;28;20047;-27
2022/10/23 06:21:47;;;;;;;124.80;46.35;;;9.60;99.90;;;;;;5094635;28;20131;-27
2022/10/23 06:24:13;;;;;;;122.95;48.22;;;9.20;99.90;;;;;;5094475;28;20035;-27
2022/10/23 06:26:38;;;;;;;118.85;47.22;;;9.20;99.90;;;;;;5094399;28;20544;-27
2022/10/23 06:29:04;;;;;;;131.57;48.75;;;9.50;99.90;;;;;;5094412;28;20116;-27
2022/10/23 06:31:30;;;;;;;104.15;43.53;;;9.50;99.90;;;;;;5094875;28;20470;-27
2022/10/23 06:33:57;;;;;;;109.70;46.25;;;9.20;99.90;;;;;;5094020;28;20059;-27
2022/10/23 06:36:23;;;;;;;107.82;43.90;;;9.40;99.90;;;;;;5094890;28;20040;-26
2022/10/23 06:38:50;;;;;;;120.15;46.85;;;9.60;99.90;;;;;;5095780;28;20485;-28
2022/10/23 06:41:19;;;;;;;119.75;46.65;;;9.50;99.90;;;;;;5094112;28;20056;-27
2022/10/23 06:43:47;;;;;;;118.50;47.70;;;9.50;99.90;;;;;;5095048;28;20052;-27
2022/10/23 06:46:13;;;;;;;105.22;45.20;;;9.70;99.90;;;;;;5077406;28;20048;-27
2022/10/23 06:48:41;;;;;;;107.65;45.88;;;9.60;99.90;;;;;;5094022;28;20051;-27
2022/10/23 06:51:09;;;;;;;115.65;47.53;;;9.50;99.90;;;;;;5078061;28;20048;-27
2022/10/23 06:53:36;;;;;;;101.45;44.65;;;9.70;99.90;;;;;;5093927;28;20652;-27
2022/10/23 06:56:04;;;;;;;96.18;44.03;;;9.60;99.90;;;;;;5093723;28;20051;-27
2022/10/23 06:58:30;;;;;;;95.35;44.42;;;9.50;99.90;;;;;;5094543;28;20083;-27
2022/10/23 07:00:58;;;;;;;104.53;43.85;;;9.90;99.90;;;;;;5094785;28;20087;-27
2022/10/23 07:03:24;;;;;;;97.88;44.50;;;9.60;99.90;;;;;;5095617;28;20067;-27
2022/10/23 07:05:49;;;;;;;94.07;43.35;;;9.90;99.90;;;;;;5093660;28;20475;-27
2022/10/23 07:08:15;;;;;;;90.50;43.63;;;9.90;99.90;;;;;;5094748;28;20097;-27
2022/10/23 07:10:42;;;;;;;93.07;42.33;;;9.70;99.90;;;;;;5093575;28;20054;-27
2022/10/23 07:13:11;;;;;;;93.07;41.72;;;10.00;99.90;;;;;;5094611;28;20048;-27
2022/10/23 07:15:38;;;;;;;111.65;44.63;;;9.90;99.90;;;;;;5093566;28;20059;-27
2022/10/23 07:18:05;;;;;;;85.80;39.80;;;10.10;99.90;;;;;;5076911;28;20052;-27
2022/10/23 07:20:31;;;;;;;97.00;43.47;;;10.20;99.90;;;;;;5093343;28;20044;-27
2022/10/23 07:22:57;;;;;;;98.53;44.78;;;10.30;99.90;;;;;;5093260;28;20596;-27
2022/10/23 07:25:24;;;;;;;86.90;38.60;;;10.30;99.90;;;;;;5094472;28;20040;-29
2022/10/23 07:27:51;;;;;;;80.20;38.08;;;10.40;99.90;;;;;;5094285;28;20047;-28
2022/10/23 07:30:17;;;;;;;77.20;38.75;;;10.40;99.90;;;;;;5094411;28;20054;-27
2022/10/23 07:32:43;;;;;;;94.18;42.38;;;10.40;99.90;;;;;;5093179;28;20137;-28
2022/10/23 07:35:10;;;;;;;85.53;39.53;;;10.40;99.90;;;;;;5094154;28;20036;-27
2022/10/23 07:37:36;;;;;;;91.07;41.53;;;10.50;99.90;;;;;;5094181;28;20075;-27
2022/10/23 07:40:04;;;;;;;87.45;40.15;;;10.60;99.90;;;;;;5093251;28;20395;-27
2022/10/23 07:42:29;;;;;;;96.40;41.25;;;10.70;99.90;;;;;;5093241;28;20056;-28
2022/10/23 07:44:55;;;;;;;92.53;41.25;;;10.50;99.90;;;;;;5094998;28;20485;-28
2022/10/23 07:47:21;;;;;;;78.40;37.83;;;10.80;99.90;;;;;;5094599;28;20122;-28
2022/10/23 07:49:47;;;;;;;68.20;36.58;;;10.50;99.90;;;;;;5093080;28;20047;-28
2022/10/23 07:52:12;;;;;;;86.93;38.50;;;10.60;99.90;;;;;;5093037;28;20486;-27
2022/10/23 07:54:38;;;;;;;87.05;38.25;;;10.70;99.90;;;;;;5075956;28;20134;-27
2022/10/23 07:57:06;;;;;;;87.65;38.55;;;10.70;99.90;;;;;;5092975;28;20075;-27
2022/10/23 07:59:32;;;;;;;85.25;36.85;;;10.90;99.90;;;;;;5093920;28;20043;-28
2022/10/23 08:01:58;;;;;;;67.85;35.05;;;11.00;99.90;;;;;;5093824;28;20052;-28
2022/10/23 08:04:24;;;;;;;70.90;32.15;;;11.30;99.90;;;;;;5076847;28;20070;-28
2022/10/23 08:06:50;;;;;;;88.47;39.63;;;11.20;99.90;;;;;;5093807;28;20470;-27
2022/10/23 08:09:16;;;;;;;71.22;34.72;;;11.30;99.90;;;;;;5092846;28;20048;-29
2022/10/23 08:11:42;;;;;;;74.20;34.63;;;11.50;99.90;;;;;;5092042;28;20040;-28
2022/10/23 08:14:08;;;;;;;69.80;34.22;;;11.60;99.90;;;;;;5093732;28;20052;-28
2022/10/23 08:16:36;;;;;;;73.22;38.72;;;11.60;99.90;;;;;;5076391;28;20041;-28
2022/10/23 08:19:04;;;;;;;58.92;32.22;;;11.60;99.90;;;;;;5093703;28;20044;-28
2022/10/23 08:21:30;;;;;;;58.53;31.35;;;11.70;99.90;;;;;;5093705;28;20470;-29
2022/10/23 08:23:58;;;;;;;60.50;30.58;;;11.80;99.90;;;;;;5093739;28;20055;-28
2022/10/23 08:26:24;;;;;;;50.20;27.90;;;11.60;99.90;;;;;;5093661;28;20050;-28
2022/10/23 08:28:51;;;;;;;50.42;27.45;;;11.80;99.90;;;;;;5076004;28;20044;-29
2022/10/23 08:31:19;;;;;;;53.97;28.70;;;11.80;99.90;;;;;;5093594;28;20050;-28
2022/10/23 08:33:45;;;;;;;61.60;27.15;;;12.00;99.90;;;;;;5093640;28;20508;-28
2022/10/23 08:36:22;;;;;;;52.45;27.15;;;12.00;99.90;;;;;;5093271;28;20044;-28
2022/10/23 08:38:49;;;;;;;56.85;24.80;;;12.20;99.90;;;;;;5094153;28;20448;-28
2022/10/23 08:41:36;;;;;;;49.72;26.42;;;12.30;99.90;;;;;;5093488;28;20052;-28
2022/10/23 08:44:25;;;;;;;52.38;24.00;;;12.20;99.90;;;;;;5094098;28;20377;-28
2022/10/23 08:47:12;;;;;;;38.67;23.38;;;12.30;99.90;;;;;;5093527;28;20040;-28
2022/10/23 08:49:52;;;;;;;40.03;22.38;;;12.50;99.90;;;;;;5075802;28;20056;-28
2022/10/23 08:52:46;;;;;;;34.78;20.80;;;12.60;99.90;;;;;;5093712;28;20047;-28
2022/10/23 08:55:28;;;;;;;35.25;20.13;;;12.60;99.90;;;;;;5094000;28;20105;-28
2022/10/23 08:58:05;;;;;;;31.25;19.55;;;12.70;99.90;;;;;;5092815;28;20044;-28
2022/10/23 09:00:31;;;;;;;33.35;19.77;;;12.80;99.90;;;;;;5093058;28;20420;-28
2022/10/23 09:03:01;;;;;;;34.80;21.00;;;12.90;99.90;;;;;;5093315;28;20046;-28
2022/10/23 09:05:30;;;;;;;35.10;18.35;;;13.00;99.90;;;;;;5093154;28;20183;-28
2022/10/23 09:08:37;;;;;;;36.80;17.58;;;13.10;99.90;;;;;;5093280;28;20044;-28
2022/10/23 09:11:25;;;;;;;28.33;16.48;;;13.20;99.90;;;;;;5093858;28;20040;-28
2022/10/23 09:14:18;;;;;;;27.38;14.90;;;13.30;99.90;;;;;;5093299;28;20044;-28
2022/10/23 09:17:11;;;;;;;24.38;14.13;;;13.40;99.90;;;;;;5094016;28;20051;-28
2022/10/23 09:19:37;;;;;;;24.48;14.23;;;13.70;99.90;;;;;;5091926;28;20048;-29
2022/10/23 09:22:04;;;;;;;26.13;15.50;;;13.80;99.90;;;;;;5093780;28;20055;-28
2022/10/23 09:24:32;;;;;;;25.80;13.15;;;14.00;99.90;;;;;;5096780;28;20109;-28
2022/10/23 09:26:59;;;;;;;26.02;12.27;;;14.10;99.90;;;;;;5097240;28;20048;-28
2022/10/23 09:29:28;;;;;;;25.02;11.27;;;14.20;99.90;;;;;;5096681;28;20136;-28
2022/10/23 09:31:59;;;;;;;18.85;10.82;;;14.30;99.90;;;;;;5096568;28;20055;-28
2022/10/23 09:34:28;;;;;;;19.13;10.98;;;14.30;99.90;;;;;;5096619;28;20051;-28
2022/10/23 09:36:59;;;;;;;24.83;12.00;;;14.50;99.90;;;;;;5096061;28;20052;-28
2022/10/23 09:39:32;;;;;;;18.92;11.00;;;14.50;99.90;;;;;;5096825;28;20149;-28
2022/10/23 09:41:58;;;;;;;;;;;14.50;99.90;;;;;;5096612;28;20108;-28
2022/10/23 09:44:26;;;;;;;21.40;11.05;;;14.40;99.90;;;;;;5078267;28;19967;-29
2022/10/23 09:46:57;;;;;;;22.95;12.82;;;14.50;99.90;;;;;;5095216;28;20036;-28
2022/10/23 09:49:29;;;;;;;19.00;9.25;;;14.50;99.90;;;;;;5095704;28;20048;-28
2022/10/23 09:52:02;;;;;;;17.60;8.95;;;14.60;99.90;;;;;;5096266;28;20113;-28
2022/10/23 09:54:44;;;;;;;16.17;8.68;;;14.70;99.90;;;;;;5096553;28;20144;-28
2022/10/23 09:57:49;;;;;;;19.13;9.20;;;14.80;99.90;;;;;;5078789;28;20044;-28
2022/10/23 10:00:25;;;;;;;12.45;8.50;;;14.90;99.90;;;;;;5095423;28;20060;-28
2022/10/23 10:02:58;;;;;;;21.83;7.95;;;15.00;99.90;;;;;;5096325;28;20105;-28
2022/10/23 10:05:26;;;;;;;;;;;15.10;99.90;;;;;;5096425;28;20100;-28
2022/10/23 10:08:23;;;;;;;16.70;8.27;;;15.00;99.90;;;;;;5078397;28;19920;-28
2022/10/23 10:10:58;;;;;;;13.82;7.38;;;15.20;99.90;;;;;;5096502;28;20048;-28
2022/10/23 10:13:35;;;;;;;11.35;7.63;;;15.20;99.90;;;;;;5095908;28;20450;-29
2022/10/23 10:16:39;;;;;;;16.08;8.57;;;15.20;99.90;;;;;;5095022;28;20088;-28
2022/10/23 10:19:33;;;;;;;12.48;7.00;;;15.30;99.90;;;;;;5085119;28;20501;-29
2022/10/23 10:22:28;;;;;;;13.68;7.43;;;15.30;99.90;;;;;;5095337;28;20109;-28
2022/10/23 10:25:12;;;;;;;15.40;7.28;;;15.40;99.90;;;;;;5087446;28;20056;-28
2022/10/23 10:28:03;;;;;;;;;;;15.50;99.90;;;;;;5094805;28;20135;-28
2022/10/23 10:30:42;;;;;;;14.60;6.95;;;15.50;99.90;;;;;;5092647;28;19927;-28
2022/10/23 10:33:21;;;;;;;17.48;5.88;;;15.60;99.90;;;;;;5095290;28;20489;-28
2022/10/23 10:35:52;;;;;;;25.45;6.53;;;15.70;99.90;;;;;;5095301;28;20474;-28
2022/10/23 10:38:48;;;;;;;14.13;5.70;;;16.00;99.90;;;;;;5095588;28;20128;-29
2022/10/23 10:41:26;;;;;;;9.15;5.22;;;16.00;99.90;;;;;;5095310;28;20135;-28
2022/10/23 10:44:11;;;;;;;16.50;5.47;;;16.10;99.90;;;;;;5095225;28;20044;-28
2022/10/23 10:46:56;;;;;;;11.90;5.00;;;16.20;99.90;;;;;;5095290;28;20047;-29
2022/10/23 10:49:26;;;;;;;10.77;5.15;;;16.30;99.90;;;;;;5094199;28;20052;-29
2022/10/23 10:52:23;;;;;;;12.32;5.57;;;16.40;99.90;;;;;;5095124;28;20044;-29
2022/10/23 10:55:03;;;;;;;10.35;4.68;;;16.40;99.90;;;;;;5095054;28;20047;-28
2022/10/23 10:57:33;;;;;;;11.27;4.97;;;16.40;99.90;;;;;;5094078;28;20084;-28
2022/10/23 11:00:16;;;;;;;11.95;4.57;;;16.50;99.90;;;;;;5095275;28;20087;-29
2022/10/23 11:02:56;;;;;;;13.88;7.72;;;16.50;99.90;;;;;;5094998;28;20127;-28
2022/10/23 11:05:28;;;;;;;12.38;4.85;;;16.60;99.90;;;;;;5094944;28;20051;-29
2022/10/23 11:08:20;;;;;;;9.77;4.90;;;16.60;99.90;;;;;;5095340;28;20348;-29
2022/10/23 11:10:50;;;;;;;11.32;4.93;;;16.60;99.90;;;;;;5094792;28;20532;-29
2022/10/23 11:13:28;;;;;;;11.52;4.95;;;16.70;99.90;;;;;;5093544;28;20048;-28
2022/10/23 11:16:08;;;;;;;15.80;4.40;;;16.70;99.90;;;;;;5094665;28;20044;-28
2022/10/23 11:18:35;;;;;;;13.90;4.30;;;16.70;99.90;;;;;;5095198;28;20097;-29
2022/10/23 11:21:20;;;;;;;20.88;5.38;;;16.70;99.90;;;;;;5094526;28;20039;-29
2022/10/23 11:24:04;;;;;;;14.95;5.38;;;16.70;99.90;;;;;;5093309;28;20545;-28
2022/10/23 11:27:04;;;;;;;22.35;4.95;;;16.80;99.90;;;;;;5093299;28;20090;-28
2022/10/23 11:29:35;;;;;;;8.45;4.18;;;16.80;99.90;;;;;;5094041;28;20498;-29
2022/10/23 11:32:38;;;;;;;15.55;3.60;;;16.80;99.90;;;;;;5094897;28;20051;-28
2022/10/23 11:35:09;;;;;;;13.85;4.78;;;16.80;99.90;;;;;;5094304;28;20048;-29
2022/10/23 11:37:35;;;;;;;15.23;5.75;;;16.80;99.90;;;;;;5094058;28;20059;-28
2022/10/23 11:40:07;;;;;;;10.13;4.03;;;16.80;99.90;;;;;;5094212;28;20048;-28
2022/10/23 11:42:46;;;;;;;11.80;4.78;;;16.90;99.90;;;;;;5093095;28;20094;-28
2022/10/23 11:45:34;;;;;;;9.13;3.80;;;16.80;99.90;;;;;;5094192;28;20118;-28
2022/10/23 11:48:14;;;;;;;22.27;5.97;;;16.70;99.90;;;;;;5093152;28;20059;-28
2022/10/23 11:50:46;;;;;;;9.52;3.80;;;16.70;99.90;;;;;;5094009;28;20051;-28
2022/10/23 11:53:29;;;;;;;6.35;3.50;;;16.70;99.90;;;;;;5094057;28;20040;-28
2022/10/23 11:56:11;;;;;;;19.73;3.92;;;16.80;99.90;;;;;;5094510;28;20121;-28
2022/10/23 11:58:44;;;;;;;12.63;3.90;;;16.70;99.90;;;;;;5094535;28;20044;-28
2022/10/23 12:01:42;;;;;;;9.27;3.72;;;16.70;99.90;;;;;;5094583;28;20122;-28
2022/10/23 12:04:11;;;;;;;8.23;3.80;;;16.70;99.90;;;;;;5076984;28;20048;-28
2022/10/23 12:06:51;;;;;;;8.85;4.18;;;16.70;99.90;;;;;;5094110;28;20051;-29
2022/10/23 12:09:45;;;;;;;9.07;4.35;;;16.60;99.90;;;;;;5094188;28;20076;-28
2022/10/23 12:12:10;;;;;;;10.68;4.43;;;16.50;99.90;;;;;;5094679;28;20044;-28
2022/10/23 12:14:39;;;;;;;17.17;4.97;;;16.50;99.90;;;;;;5094270;28;20476;-29
2022/10/23 12:17:38;;;;;;;9.57;4.93;;;16.40;99.90;;;;;;5093690;28;20036;-28
2022/10/23 12:20:07;;;;;;;13.60;4.28;;;16.40;99.90;;;;;;5081611;28;20486;-28
2022/10/23 12:22:41;;;;;;;8.80;4.03;;;16.30;99.90;;;;;;5093721;28;20135;-29
2022/10/23 12:25:39;;;;;;;7.75;3.95;;;16.20;99.90;;;;;;5092983;28;20096;-28
2022/10/23 12:28:28;;;;;;;11.57;3.72;;;16.10;99.90;;;;;;5092526;28;20048;-29
2022/10/23 12:31:15;;;;;;;13.82;5.07;;;16.10;99.90;;;;;;5094310;28;20048;-28
2022/10/23 12:34:08;;;;;;;8.82;3.85;;;16.10;99.90;;;;;;5094142;28;20152;-28
2022/10/23 12:36:58;;;;;;;10.77;4.00;;;16.10;99.90;;;;;;5093402;28;20040;-28
2022/10/23 12:39:35;;;;;;;7.10;3.33;;;16.10;99.90;;;;;;5094184;28;20105;-28
2022/10/23 12:42:01;;;;;;;10.95;3.88;;;16.10;99.90;;;;;;5093616;28;20052;-28
2022/10/23 12:44:27;;;;;;;11.60;4.25;;;16.10;99.90;;;;;;5093485;28;20048;-28
2022/10/23 12:46:59;;;;;;;10.48;4.38;;;16.10;99.90;;;;;;5093061;28;20527;-28
2022/10/23 12:49:27;;;;;;;11.90;3.83;;;16.20;99.90;;;;;;5094041;28;20044;-28
2022/10/23 12:51:58;;;;;;;10.10;3.90;;;16.20;99.90;;;;;;5093973;28;20288;-28
2022/10/23 12:54:25;;;;;;;9.82;4.10;;;16.20;99.90;;;;;;5092599;28;20055;-29
2022/10/23 12:56:52;;;;;;;10.40;4.05;;;16.30;99.90;;;;;;5093558;28;20075;-28
2022/10/23 12:59:22;;;;;;;11.68;4.15;;;16.30;99.90;;;;;;5097190;28;20145;-28